Rejestracja

Wszystkie dane podawane są w czasie UTC za wyjątkiem miejsc gdzie jest jednoznacznie podane, że jest inaczej. Dane podawane w serwisie mają charakter informacyjny!!!
Informacje w sprawie dostępu do serwisu pod numerem tel. +48 261-828-559 lub +48 261-828-138
Informacja dla żołnierzy i pracowników wojska: Prosimy o niezwłoczną zmianę adresu e-mail w profilu użytkownika na pocztę w domenie @ron.mil.pl
Brak służbowego adresu e-mail skutkuje usunięciem konta.

Aktualna Pogoda
 
Pogoda w Polsce
17°C Szczecin 18°C Suwałki 22°C Warszawa 22°C Poznan
23°C Opole 23°C Kraków 20°C Rzeszów
Więcej miast w Polsce

Pogoda w Europie
22°C Berlin 27°C Paryz 23°C Bruksela 20°C Oslo
25°C Praga 24°C Zagrzeb
Więcej miast w Europie

Metary wojskowe test
METAR EPBC 151800Z AUTO 21001KT CAVOK 22/11 Q1016=
METAR EPCE 151800Z 30007KT CAVOK 16/07 Q1019 RMK 159 054 0/0=
METAR EPDA 151800Z 27005KT 210V330 CAVOK 15/10 Q1019 RMK 154 071 0/0=
METAR EPDE 151800Z 31004KT CAVOK 21/11 Q1017 RMK 213 052 6/2=
METAR EPIR 151800Z 30010KT CAVOK 22/14 Q1017 RMK 223 061 6/2=
METAR EPKS 151800Z 36007KT CAVOK 22/15 Q1018 RMK 223 065 6/3=
METAR EPLK 151800Z 00000KT CAVOK 22/11 Q1017 RMK 223 049 7/2=
METAR EPLY 151800Z VRB02KT CAVOK 23/14 Q1017 RMK 234 054 7/4=
METAR EPMB 151800Z 03007KT 350V060 CAVOK 16/10 Q1018 RMK 161 066 3/3=
METAR EPMI 151800Z 32009KT CAVOK 18/06 Q1019 RMK 179 044 1/1=
METAR EPMM 151800Z 33003KT 9999 BKN120 21/12 Q1017 RMK 207 058 5/5=
METAR EPOK 151800Z 31010KT CAVOK 17/06 Q1018 RMK 165 051 0/0=
METAR EPPR 151800Z 30006KT CAVOK 18/05 Q1018 RMK 177 043 0/0=
METAR EPPW 151800Z 36006KT 9999 BKN120 22/14 Q1017 RMK 224 060 7/7=
METAR EPSN 151800Z 34007KT 310V010 CAVOK 16/05 Q1019 RMK 163 046 0/0=
METAR EPTM 151800Z 30002KT CAVOK 23/10 Q1017 RMK 225 046 5/2=


 

Prawa autorskie©2007 SSH SZ RP. Wszelkie prawa zastrzeżone.